Time;durP1;ratioP1;P1;durP2;ratioP2;P2;SDS_P1;SDS_P2;PMS_P1;PMS_P2;Temp;Humidity;BMP_temperature;BMP_pressure;BME280_temperature;BME280_humidity;BME280_pressure;Samples;Min_cycle;Max_cycle;Signal;HPM_P1;HPM_P2
2022/04/14 00:00:27;;;;;;;1.95;0.90;;;;;;;5.68;100.00;100340.09;6194345;23;20032;-63
2022/04/14 00:03:13;;;;;;;1.70;0.90;;;;;;;5.71;100.00;100363.81;6161527;23;20358;-62
2022/04/14 00:05:58;;;;;;;1.88;1.20;;;;;;;5.75;100.00;100362.97;6170973;23;20119;-64
2022/04/14 00:08:42;;;;;;;2.58;0.90;;;;;;;5.68;100.00;100355.91;6190483;23;20169;-66
2022/04/14 00:11:27;;;;;;;1.57;0.83;;;;;;;5.77;100.00;100367.38;6177834;23;20099;-65
2022/04/14 00:14:11;;;;;;;2.00;0.98;;;;;;;5.81;100.00;100363.94;6179464;23;20759;-62
2022/04/14 00:16:56;;;;;;;2.38;1.00;;;;;;;5.89;100.00;100371.91;6189074;23;20160;-62
2022/04/14 00:19:41;;;;;;;2.40;1.15;;;;;;;5.96;100.00;100376.34;6187408;23;20093;-74
2022/04/14 00:22:25;;;;;;;;;;;;;;;6.00;100.00;100373.75;6189713;23;20031;-63
2022/04/14 00:25:11;;;;;;;1.50;0.80;;;;;;;6.01;100.00;100358.84;6189584;23;19923;-62
2022/04/14 00:27:56;;;;;;;2.20;0.88;;;;;;;5.96;100.00;100363.19;6181702;23;20112;-63
2022/04/14 00:30:40;;;;;;;1.80;1.10;;;;;;;5.98;100.00;100372.00;6190081;23;20087;-62
2022/04/14 00:33:26;;;;;;;1.55;0.93;;;;;;;5.97;100.00;100372.88;6181600;23;20035;-63
2022/04/14 00:36:11;;;;;;;3.05;0.90;;;;;;;6.01;100.00;100375.50;6191504;23;20407;-62
2022/04/14 00:38:55;;;;;;;2.13;0.88;;;;;;;5.64;100.00;100319.91;6158099;23;20494;-64
2022/04/14 00:41:39;;;;;;;2.15;1.00;;;;;;;5.88;100.00;100355.25;6159267;23;20097;-62
2022/04/14 00:44:24;;;;;;;1.45;0.70;;;;;;;5.97;100.00;100364.97;6189125;23;20031;-63
2022/04/14 00:47:12;;;;;;;2.83;1.10;;;;;;;5.82;100.00;100355.22;6192031;23;20032;-63
2022/04/14 00:49:57;;;;;;;3.15;0.98;;;;;;;5.89;100.00;100357.00;6192293;23;20162;-63
2022/04/14 00:52:45;;;;;;;2.70;0.90;;;;;;;5.93;100.00;100356.16;6190486;23;20035;-62
2022/04/14 00:55:29;;;;;;;0.98;0.60;;;;;;;5.94;100.00;100352.66;6185947;23;20032;-63
2022/04/14 00:58:14;;;;;;;2.58;0.73;;;;;;;5.98;100.00;100346.56;6196867;23;20031;-66
2022/04/14 01:00:59;;;;;;;1.05;0.80;;;;;;;5.98;100.00;100350.94;6196398;23;20032;-63
2022/04/14 01:03:45;;;;;;;1.83;0.68;;;;;;;5.97;100.00;100342.13;6193306;23;20047;-63
2022/04/14 01:06:31;;;;;;;0.93;0.63;;;;;;;5.95;100.00;100340.38;6181616;23;20032;-63
2022/04/14 01:09:19;;;;;;;0.68;0.50;;;;;;;5.89;100.00;100330.69;6191414;23;20040;-68
2022/04/14 01:12:04;;;;;;;0.75;0.60;;;;;;;5.87;100.00;100340.31;6190165;23;20486;-65
2022/04/14 01:14:49;;;;;;;2.17;0.88;;;;;;;5.79;100.00;100341.09;6190977;23;20032;-64
2022/04/14 01:17:34;;;;;;;0.60;0.50;;;;;;;5.75;100.00;100344.56;6188152;23;20079;-63
2022/04/14 01:20:18;;;;;;;3.95;0.70;;;;;;;5.86;100.00;100348.22;6190963;23;20530;-63
2022/04/14 01:23:04;;;;;;;2.47;0.52;;;;;;;5.87;100.00;100349.97;6180152;23;20073;-64
2022/04/14 01:25:50;;;;;;;1.23;0.75;;;;;;;5.81;100.00;100353.41;6191044;23;20032;-61
2022/04/14 01:28:34;;;;;;;1.42;0.80;;;;;;;5.76;100.00;100344.59;6179805;23;20032;-63
2022/04/14 01:31:19;;;;;;;3.30;0.70;;;;;;;5.77;100.00;100350.75;6189751;23;20036;-72
2022/04/14 01:34:03;;;;;;;1.95;0.90;;;;;;;5.75;100.00;100344.56;6180924;23;20407;-62
2022/04/14 01:36:48;;;;;;;0.93;0.60;;;;;;;5.69;100.00;100341.91;6177342;23;20079;-62
2022/04/14 01:39:32;;;;;;;1.17;0.80;;;;;;;5.82;100.00;100347.31;6180932;23;20028;-62
2022/04/14 01:42:17;;;;;;;1.38;0.85;;;;;;;5.89;100.00;100351.72;6187824;23;20052;-62
2022/04/14 01:45:01;;;;;;;2.10;1.00;;;;;;;5.83;100.00;100361.31;6193458;23;20036;-62
2022/04/14 01:47:47;;;;;;;1.23;1.00;;;;;;;5.88;100.00;100349.09;6142547;23;20032;-63
2022/04/14 01:50:32;;;;;;;3.00;1.98;;;;;;;5.97;100.00;100357.06;6194887;23;20040;-63
2022/04/14 01:53:16;;;;;;;4.22;2.88;;;;;;;5.90;100.00;100352.63;6182688;23;20363;-63
2022/04/14 01:56:01;;;;;;;2.28;1.77;;;;;;;5.82;100.00;100339.41;6188483;23;20028;-64
2022/04/14 01:58:45;;;;;;;2.28;1.50;;;;;;;5.90;100.00;100355.25;6168918;23;20074;-63
2022/04/14 02:01:30;;;;;;;2.00;1.20;;;;;;;5.93;100.00;100347.38;6177306;23;20154;-63
2022/04/14 02:04:14;;;;;;;1.80;1.20;;;;;;;5.90;100.00;100350.88;6180975;23;20368;-63
2022/04/14 02:06:59;;;;;;;2.50;1.80;;;;;;;5.77;100.00;100359.50;6191020;23;20080;-62
2022/04/14 02:09:43;;;;;;;1.80;1.30;;;;;;;5.54;100.00;100321.56;6190430;23;20074;-62
2022/04/14 02:12:28;;;;;;;1.00;0.82;;;;;;;5.57;100.00;100349.69;6180317;23;20478;-63
2022/04/14 02:15:12;;;;;;;1.52;0.90;;;;;;;5.68;100.00;100362.06;6179225;23;20063;-66
2022/04/14 02:17:57;;;;;;;1.17;0.60;;;;;;;5.64;100.00;100356.72;6158329;23;20028;-63
2022/04/14 02:20:42;;;;;;;7.43;0.70;;;;;;;5.51;100.00;100368.03;6178167;23;20031;-64
2022/04/14 02:23:27;;;;;;;1.63;0.95;;;;;;;5.42;100.00;100345.13;6180264;23;20023;-63
2022/04/14 02:26:11;;;;;;;1.42;0.80;;;;;;;5.55;100.00;100364.56;6188683;23;20063;-62
2022/04/14 02:28:59;;;;;;;1.20;0.68;;;;;;;5.70;100.00;100373.44;6190385;23;20075;-67
2022/04/14 02:31:43;;;;;;;1.40;0.90;;;;;;;5.69;100.00;100376.09;6180666;23;20094;-65
2022/04/14 02:34:27;;;;;;;2.37;0.80;;;;;;;5.51;100.00;100342.63;6189081;23;20031;-65
2022/04/14 02:37:12;;;;;;;1.90;0.80;;;;;;;5.58;100.00;100378.59;6189163;23;20420;-64
2022/04/14 02:39:56;;;;;;;1.75;0.90;;;;;;;5.65;100.00;100385.69;6188048;23;20044;-64
2022/04/14 02:42:41;;;;;;;0.90;0.70;;;;;;;5.66;100.00;100368.16;6190526;23;20027;-63
2022/04/14 02:45:27;;;;;;;1.33;0.80;;;;;;;5.51;100.00;100378.53;6209070;23;20085;-63
2022/04/14 02:48:11;;;;;;;2.80;0.77;;;;;;;5.39;100.00;100389.84;6179029;23;20027;-63
2022/04/14 02:50:56;;;;;;;1.15;0.70;;;;;;;5.49;100.00;100382.91;6190380;23;20039;-63
2022/04/14 02:53:40;;;;;;;4.90;0.90;;;;;;;5.40;100.00;100356.50;6178482;23;20051;-65
2022/04/14 02:56:24;;;;;;;1.60;0.80;;;;;;;5.45;100.00;100381.13;6189015;23;20259;-64
2022/04/14 02:59:09;;;;;;;2.05;0.93;;;;;;;5.49;100.00;100383.78;6176576;23;20078;-64
2022/04/14 03:01:53;;;;;;;1.35;0.88;;;;;;;5.51;100.00;100387.31;6188968;23;20083;-62
2022/04/14 03:04:37;;;;;;;1.77;0.97;;;;;;;5.45;100.00;100382.00;6187912;23;20530;-64
2022/04/14 03:07:22;;;;;;;1.40;0.98;;;;;;;5.39;100.00;100392.47;6190237;23;20344;-65
2022/04/14 03:10:07;;;;;;;2.20;1.00;;;;;;;5.10;100.00;100353.56;6190417;23;20032;-64
2022/04/14 03:12:52;;;;;;;0.98;0.70;;;;;;;5.22;100.00;100385.25;6190428;23;20071;-63
2022/04/14 03:15:36;;;;;;;2.28;0.90;;;;;;;5.25;100.00;100406.31;6180005;23;20538;-63
2022/04/14 03:18:20;;;;;;;3.22;0.95;;;;;;;5.29;100.00;100405.50;6188528;23;20071;-71
2022/04/14 03:21:05;;;;;;;1.30;0.82;;;;;;;5.35;100.00;100403.81;6179165;23;20542;-64
2022/04/14 03:23:50;;;;;;;1.13;0.80;;;;;;;5.41;100.00;100400.38;6188296;23;20485;-63
2022/04/14 03:26:34;;;;;;;2.80;0.88;;;;;;;5.38;100.00;100411.72;6189051;23;20028;-63
2022/04/14 03:29:19;;;;;;;5.47;0.80;;;;;;;5.54;100.00;100418.91;6178660;23;20039;-63
2022/04/14 03:32:04;;;;;;;0.63;0.60;;;;;;;5.61;100.00;100409.34;6178969;23;20080;-63
2022/04/14 03:34:48;;;;;;;2.83;0.80;;;;;;;5.52;100.00;100409.22;6180239;23;20460;-63
2022/04/14 03:37:33;;;;;;;1.75;0.80;;;;;;;5.33;100.00;100383.63;6191698;23;20368;-63
2022/04/14 03:40:18;;;;;;;3.00;0.80;;;;;;;5.56;100.00;100416.28;6194989;23;20535;-65
2022/04/14 03:43:02;;;;;;;;;;;;;;;5.66;100.00;100424.28;6195853;23;20063;-63
2022/04/14 03:45:47;;;;;;;1.90;0.77;;;;;;;5.59;100.00;100433.00;6185024;23;19923;-63
2022/04/14 03:48:31;;;;;;;4.28;0.70;;;;;;;5.72;100.00;100431.34;6195840;23;20074;-63
2022/04/14 03:51:16;;;;;;;2.92;0.77;;;;;;;5.68;100.00;100414.66;6194928;23;20031;-61
2022/04/14 03:54:00;;;;;;;0.98;0.73;;;;;;;5.80;100.00;100443.72;6196556;23;20355;-65
2022/04/14 03:56:46;;;;;;;1.40;0.97;;;;;;;5.81;100.00;100442.88;6194212;23;20032;-66
2022/04/14 03:59:31;;;;;;;2.13;0.90;;;;;;;5.80;100.00;100432.31;6186411;23;20268;-65
2022/04/14 04:02:16;;;;;;;1.15;0.80;;;;;;;5.84;100.00;100429.75;6194273;23;20083;-65
2022/04/14 04:05:00;;;;;;;1.80;0.90;;;;;;;5.71;100.00;100406.81;6163549;23;20079;-65
2022/04/14 04:07:45;;;;;;;2.70;0.80;;;;;;;5.85;100.00;100434.16;6184474;23;20072;-64
2022/04/14 04:10:29;;;;;;;1.35;0.85;;;;;;;5.84;100.00;100426.25;6196256;23;20047;-64
2022/04/14 04:13:14;;;;;;;1.20;0.75;;;;;;;5.97;100.00;100436.91;6162059;23;20404;-63
2022/04/14 04:15:58;;;;;;;2.00;0.85;;;;;;;5.88;100.00;100428.91;6196165;23;20044;-64
2022/04/14 04:18:42;;;;;;;1.35;0.80;;;;;;;5.93;100.00;100435.09;6185544;23;20027;-63
2022/04/14 04:21:29;;;;;;;3.50;0.67;;;;;;;5.71;100.00;100398.91;6194355;23;20032;-65
2022/04/14 04:24:14;;;;;;;2.85;0.80;;;;;;;5.71;100.00;100406.81;6206078;23;20736;-64
2022/04/14 04:26:58;;;;;;;1.60;0.93;;;;;;;5.82;100.00;100430.63;6195573;23;20079;-63
2022/04/14 04:29:43;;;;;;;2.28;0.95;;;;;;;5.91;100.00;100426.31;6185329;23;20103;-64
2022/04/14 04:32:27;;;;;;;1.40;1.00;;;;;;;5.87;100.00;100423.63;6195745;23;20027;-63
2022/04/14 04:35:12;;;;;;;2.22;0.80;;;;;;;5.91;100.00;100421.06;6196406;23;20267;-64
2022/04/14 04:37:57;;;;;;;2.85;0.80;;;;;;;5.85;100.00;100417.50;6194892;23;20096;-65
2022/04/14 04:40:42;;;;;;;1.23;0.70;;;;;;;5.64;100.00;100404.09;6183614;23;20111;-65
2022/04/14 04:43:27;;;;;;;1.83;0.90;;;;;;;5.48;100.00;100360.09;6195399;23;20395;-64
2022/04/14 04:46:11;;;;;;;1.88;0.73;;;;;;;5.89;100.00;100422.78;6163363;23;20445;-63
2022/04/14 04:48:55;;;;;;;4.32;1.13;;;;;;;5.88;100.00;100423.66;6193793;23;20032;-63
2022/04/14 04:51:40;;;;;;;2.72;1.20;;;;;;;5.76;100.00;100412.09;6194463;23;20032;-65
2022/04/14 04:54:25;;;;;;;2.72;0.88;;;;;;;5.70;100.00;100426.06;6185071;23;20060;-62
2022/04/14 04:57:10;;;;;;;3.63;1.00;;;;;;;5.78;100.00;100416.53;6183154;23;20160;-64
2022/04/14 04:59:55;;;;;;;1.70;0.90;;;;;;;5.51;100.00;100382.06;6172447;23;20040;-64
2022/04/14 05:02:40;;;;;;;2.42;0.82;;;;;;;5.70;100.00;100423.44;6184828;23;20035;-65
2022/04/14 05:05:26;;;;;;;1.50;1.02;;;;;;;5.75;100.00;100403.34;6161651;23;20036;-65
2022/04/14 05:08:10;;;;;;;1.77;0.70;;;;;;;5.84;100.00;100405.19;6162033;23;20119;-64
2022/04/14 05:10:55;;;;;;;2.17;0.90;;;;;;;5.80;100.00;100400.72;6194496;23;20364;-65
2022/04/14 05:13:39;;;;;;;11.60;1.08;;;;;;;5.85;100.00;100402.56;6183196;23;20509;-64
2022/04/14 05:16:24;;;;;;;4.18;0.80;;;;;;;5.85;100.00;100407.84;6193368;23;20032;-66
2022/04/14 05:19:10;;;;;;;3.03;0.90;;;;;;;5.77;100.00;100404.22;6183081;23;20039;-68
2022/04/14 05:21:56;;;;;;;4.45;1.00;;;;;;;5.88;100.00;100407.88;6192566;23;20110;-64
2022/04/14 05:24:41;;;;;;;6.95;0.93;;;;;;;6.02;100.00;100413.25;6172602;23;20044;-64
2022/04/14 05:27:26;;;;;;;5.50;1.88;;;;;;;6.03;100.00;100417.66;6184383;23;20032;-64
2022/04/14 05:30:11;;;;;;;2.28;1.00;;;;;;;6.00;100.00;100414.97;6192966;23;20031;-63
2022/04/14 05:32:56;;;;;;;4.68;0.90;;;;;;;6.02;100.00;100416.78;6183889;23;20035;-63
2022/04/14 05:35:43;;;;;;;1.45;0.70;;;;;;;6.15;100.00;100420.38;6163698;23;20067;-62
2022/04/14 05:38:27;;;;;;;6.43;0.80;;;;;;;6.27;100.00;100420.47;6196113;23;20028;-64
2022/04/14 05:41:11;;;;;;;1.77;0.93;;;;;;;6.26;100.00;100423.97;6194961;23;20078;-64
2022/04/14 05:43:56;;;;;;;5.68;1.02;;;;;;;6.35;100.00;100430.19;6194841;23;20032;-61
2022/04/14 05:46:41;;;;;;;6.47;1.40;;;;;;;6.51;100.00;100434.69;6195159;23;20139;-65
2022/04/14 05:49:25;;;;;;;5.35;0.80;;;;;;;6.61;100.00;100418.06;6183338;23;20079;-63
2022/04/14 05:52:09;;;;;;;3.53;1.17;;;;;;;6.61;100.00;100433.88;6184028;23;20047;-64
2022/04/14 05:54:54;;;;;;;3.47;0.85;;;;;;;6.57;100.00;100408.38;6183644;23;20031;-64
2022/04/14 05:57:39;;;;;;;6.95;0.95;;;;;;;6.80;100.00;100427.00;6183847;23;20107;-67
2022/04/14 06:00:23;;;;;;;1.95;0.93;;;;;;;6.93;100.00;100434.94;6183204;23;20490;-65
2022/04/14 06:03:08;;;;;;;1.83;0.90;;;;;;;6.96;100.00;100421.78;6195365;23;20352;-64
2022/04/14 06:05:53;;;;;;;5.07;0.90;;;;;;;6.99;100.00;100413.91;6161971;23;20094;-64
2022/04/14 06:08:37;;;;;;;2.75;1.40;;;;;;;7.05;100.00;100408.66;6193920;23;20031;-64
2022/04/14 06:11:21;;;;;;;4.27;1.10;;;;;;;7.18;100.00;100407.81;6184851;23;20380;-63
2022/04/14 06:14:07;;;;;;;7.22;1.08;;;;;;;7.14;100.00;100395.50;6162100;23;20470;-63
2022/04/14 06:16:52;;;;;;;7.95;1.38;;;;;;;7.36;100.00;100417.56;6192748;23;20139;-65
2022/04/14 06:19:38;;;;;;;2.50;1.10;;;;;;;7.44;100.00;100426.38;6214379;23;20090;-64
2022/04/14 06:22:23;;;;;;;5.18;0.98;;;;;;;7.45;100.00;100423.75;6192493;23;20071;-65
2022/04/14 06:25:12;;;;;;;3.55;0.82;;;;;;;7.46;100.00;100422.88;6183377;23;20513;-64
2022/04/14 06:27:57;;;;;;;2.38;0.80;;;;;;;7.59;100.00;100436.94;6184519;23;20094;-65
2022/04/14 06:30:42;;;;;;;1.87;0.80;;;;;;;7.71;100.00;100439.66;6192916;23;20028;-65
2022/04/14 06:33:30;;;;;;;2.88;0.80;;;;;;;7.90;100.00;100449.34;6193444;23;20112;-64
2022/04/14 06:36:14;;;;;;;1.85;0.68;;;;;;;7.89;100.00;100413.25;6183368;23;20072;-77
2022/04/14 06:38:59;;;;;;;1.98;0.98;;;;;;;8.02;100.00;100412.38;6194906;23;20027;-64
2022/04/14 06:41:43;;;;;;;0.88;0.70;;;;;;;8.39;100.00;100446.75;6161892;23;20052;-63
2022/04/14 06:44:29;;;;;;;8.55;1.00;;;;;;;8.69;100.00;100441.44;6184282;23;20395;-63
2022/04/14 06:47:13;;;;;;;4.57;0.80;;;;;;;8.84;100.00;100428.19;6183948;23;20077;-65
2022/04/14 06:49:58;;;;;;;4.75;0.93;;;;;;;9.23;100.00;100441.25;6195168;23;20028;-64
2022/04/14 06:52:42;;;;;;;3.33;1.10;;;;;;;9.38;100.00;100403.28;6194725;23;20035;-65
2022/04/14 06:55:27;;;;;;;0.80;0.80;;;;;;;9.85;100.00;100435.63;6193238;23;20087;-65
2022/04/14 06:58:12;;;;;;;7.25;0.90;;;;;;;10.02;100.00;100435.53;6172460;23;20105;-64
2022/04/14 07:00:57;;;;;;;4.40;0.93;;;;;;;10.35;100.00;100436.19;6193408;23;20368;-64
2022/04/14 07:03:41;;;;;;;7.53;1.00;;;;;;;10.79;100.00;100441.94;6183063;23;20481;-64
2022/04/14 07:06:25;;;;;;;6.30;1.00;;;;;;;11.33;100.00;100437.81;6161374;23;20028;-65
2022/04/14 07:09:10;;;;;;;3.83;1.05;;;;;;;11.78;100.00;100446.06;6182579;23;20375;-65
2022/04/14 07:11:56;;;;;;;2.80;1.00;;;;;;;12.34;100.00;100438.09;6192998;23;20032;-64
2022/04/14 07:14:40;;;;;;;1.65;0.80;;;;;;;12.71;100.00;100436.56;6185173;23;20039;-66
2022/04/14 07:17:26;;;;;;;3.35;0.70;;;;;;;13.10;100.00;100438.50;6195498;23;20143;-64
2022/04/14 07:20:11;;;;;;;1.48;0.77;;;;;;;13.37;98.76;100439.75;6186798;23;20082;-68
2022/04/14 07:22:58;;;;;;;;;;;;;;;14.10;96.61;100437.22;6195138;23;20024;-66
2022/04/14 07:25:42;;;;;;;20.55;1.52;;;;;;;14.67;87.29;100441.16;6195487;23;19962;-66
2022/04/14 07:28:27;;;;;;;5.45;0.90;;;;;;;15.00;83.17;100418.91;6193516;23;20024;-67
2022/04/14 07:31:11;;;;;;;3.72;0.80;;;;;;;15.49;78.03;100438.00;6205556;23;20036;-66
2022/04/14 07:33:56;;;;;;;1.02;0.70;;;;;;;15.92;75.39;100448.28;6191643;23;20100;-66
2022/04/14 07:36:41;;;;;;;;;;;;;;;16.36;73.31;100435.25;6184756;23;20051;-68
2022/04/14 07:39:26;;;;;;;1.53;0.80;;;;;;;16.78;66.74;100441.84;6194731;23;19986;-66
2022/04/14 07:42:10;;;;;;;2.50;0.70;;;;;;;17.41;63.15;100436.91;6199761;23;20371;-65
2022/04/14 07:44:55;;;;;;;5.45;0.90;;;;;;;18.09;57.91;100426.22;6199379;23;20104;-66
2022/04/14 07:47:41;;;;;;;3.60;0.70;;;;;;;18.92;53.33;100430.81;6190020;23;20343;-67
2022/04/14 07:50:26;;;;;;;3.28;0.52;;;;;;;19.53;50.85;100427.16;6166543;23;20455;-64
2022/04/14 07:53:10;;;;;;;;;;;;;;;20.34;56.23;100429.50;6186534;23;20035;-66
2022/04/14 07:55:55;;;;;;;2.10;0.80;;;;;;;20.67;44.13;100427.84;6184550;23;19919;-66
2022/04/14 07:58:43;;;;;;;8.43;0.80;;;;;;;21.01;38.88;100432.41;6185680;23;20410;-69
2022/04/14 08:01:29;;;;;;;5.50;0.63;;;;;;;21.50;37.75;100410.84;6185772;23;20044;-66
2022/04/14 08:04:13;;;;;;;7.03;0.90;;;;;;;21.82;35.52;100420.78;6184430;23;20076;-66
2022/04/14 08:06:58;;;;;;;10.73;1.42;;;;;;;22.07;35.49;100431.06;6163190;23;20052;-65
2022/04/14 08:09:42;;;;;;;0.93;0.40;;;;;;;23.01;32.04;100432.72;6194297;23;20470;-64
2022/04/14 08:12:26;;;;;;;2.72;0.50;;;;;;;23.78;29.01;100428.81;6184185;23;20031;-65
2022/04/14 08:15:12;;;;;;;;;;;;;;;24.58;38.56;100427.16;6185005;23;20110;-66
2022/04/14 08:17:57;;;;;;;;;;;;;;;25.29;32.73;100428.59;6173761;23;20053;-65
2022/04/14 08:20:42;;;;;;;4.93;1.00;;;;;;;24.84;25.91;100430.84;6164064;23;20361;-66
2022/04/14 08:23:27;;;;;;;7.15;0.80;;;;;;;25.31;24.51;100413.03;6185369;23;20027;-66
2022/04/14 08:26:12;;;;;;;4.05;0.65;;;;;;;26.11;24.13;100423.56;6184138;23;20152;-67
2022/04/14 08:28:59;;;;;;;1.75;0.50;;;;;;;26.73;23.08;100425.22;6163272;23;20028;-65
2022/04/14 08:31:44;;;;;;;2.42;0.60;;;;;;;27.20;21.59;100432.44;6196933;23;20399;-66
2022/04/14 08:34:29;;;;;;;6.95;0.80;;;;;;;27.35;21.82;100410.38;6196140;23;20131;-67
2022/04/14 08:37:13;;;;;;;;;;;;;;;28.02;24.52;100439.47;6184667;23;20426;-66
2022/04/14 08:39:58;;;;;;;1.15;0.60;;;;;;;28.42;19.98;100415.25;6195518;23;19971;-65
2022/04/14 08:42:57;;;;;;;1.73;0.70;;;;;;;29.11;20.09;100406.63;6184470;23;20027;-66
2022/04/14 08:45:50;;;;;;;3.72;0.90;;;;;;;29.22;18.96;100418.34;6195178;23;20485;-67
2022/04/14 08:48:36;;;;;;;3.53;1.40;;;;;;;29.12;18.95;100411.06;6195097;23;20028;-65
2022/04/14 08:51:22;;;;;;;1.63;0.70;;;;;;;29.38;18.42;100418.75;6183896;23;20079;-67
2022/04/14 08:54:09;;;;;;;3.72;0.60;;;;;;;30.16;17.71;100415.47;6195266;23;20355;-66
2022/04/14 08:56:58;;;;;;;2.00;0.57;;;;;;;29.99;16.65;100396.94;6194366;23;20076;-66
2022/04/14 08:59:44;;;;;;;4.78;0.50;;;;;;;29.27;16.21;100405.13;6185571;23;20123;-67
2022/04/14 09:02:32;;;;;;;7.05;0.63;;;;;;;30.14;17.27;100410.16;6195005;23;20028;-68
2022/04/14 09:05:17;;;;;;;2.63;0.75;;;;;;;30.04;16.82;100401.00;6195396;23;20482;-67
2022/04/14 09:08:03;;;;;;;1.00;0.70;;;;;;;30.86;16.32;100397.94;6162015;23;20032;-66
2022/04/14 09:46:44;;;;;;;5.50;1.00;;;;;;;31.48;14.14;100381.00;6240975;22;20415;-66
2022/04/14 09:49:28;;;;;;;1.98;0.70;;;;;;;32.48;13.62;100383.78;6192455;23;20106;-66
2022/04/14 09:52:13;;;;;;;2.45;0.68;;;;;;;32.96;13.09;100373.31;6201424;23;20409;-66
2022/04/14 09:55:08;;;;;;;2.65;0.60;;;;;;;32.31;13.45;100365.41;6170103;23;20030;-65
2022/04/14 09:58:06;;;;;;;1.83;0.70;;;;;;;32.43;13.53;100369.66;6200945;23;20031;-64
2022/04/14 10:00:58;;;;;;;2.42;0.50;;;;;;;32.25;14.06;100377.84;6224483;23;20031;-64
2022/04/14 10:03:42;;;;;;;11.25;1.00;;;;;;;31.88;13.58;100374.25;6224716;23;20085;-68
2022/04/14 10:06:27;;;;;;;1.95;0.70;;;;;;;30.72;14.17;100364.59;6150190;23;20028;-65
2022/04/14 10:09:28;;;;;;;2.92;0.93;;;;;;;32.50;13.27;100366.13;6200903;23;20347;-69
2022/04/14 10:12:15;;;;;;;5.68;0.80;;;;;;;33.20;13.15;100370.78;6180841;23;20043;-66
2022/04/14 10:15:08;;;;;;;3.28;1.45;;;;;;;33.08;13.74;100364.69;6191704;23;20425;-73
2022/04/14 10:17:53;;;;;;;5.68;1.13;;;;;;;32.24;13.36;100331.31;6222646;23;20442;-65
2022/04/14 10:20:39;;;;;;;1.25;0.60;;;;;;;33.01;13.60;100371.81;6202025;23;20501;-68
2022/04/14 10:23:27;;;;;;;3.67;0.80;;;;;;;34.24;13.57;100374.22;6214914;23;20031;-67
2022/04/14 10:26:13;;;;;;;2.42;0.55;;;;;;;32.56;13.06;100375.63;6191485;23;20030;-66
2022/04/14 10:29:00;;;;;;;6.80;0.80;;;;;;;32.87;12.56;100366.03;6202130;23;20532;-67
2022/04/14 10:31:45;;;;;;;2.85;0.70;;;;;;;33.73;12.85;100366.00;6200699;23;20031;-65
2022/04/14 10:34:31;;;;;;;3.08;0.70;;;;;;;34.15;12.75;100349.56;6170089;23;20488;-64
2022/04/14 10:37:21;;;;;;;2.88;0.77;;;;;;;33.63;13.27;100356.16;6200628;23;20032;-67
2022/04/14 10:40:09;;;;;;;3.85;0.80;;;;;;;33.34;12.73;100351.00;6214043;23;20446;-67
2022/04/14 10:42:56;;;;;;;2.35;0.90;;;;;;;33.08;12.24;100355.56;6223771;23;20102;-65
2022/04/14 10:45:52;;;;;;;0.80;0.60;;;;;;;33.61;12.74;100363.72;6201973;23;20035;-65
2022/04/14 10:48:40;;;;;;;2.25;1.42;;;;;;;33.40;12.37;100360.47;6187435;23;20077;-67
2022/04/14 10:51:29;;;;;;;3.63;0.90;;;;;;;33.34;12.53;100356.50;6222044;23;20031;-66
2022/04/14 10:54:15;;;;;;;2.40;0.70;;;;;;;33.58;12.02;100348.41;6231525;23;20366;-67
2022/04/14 10:57:01;;;;;;;3.03;0.93;;;;;;;33.53;12.35;100345.25;6221516;23;20078;-66
2022/04/14 10:59:46;;;;;;;2.53;0.80;;;;;;;31.95;12.94;100349.81;6230331;23;20074;-65
2022/04/14 11:03:09;;;;;;;3.17;0.70;;;;;;;32.90;13.62;100347.34;6231241;23;20027;-68
2022/04/14 11:08:56;;;;;;;6.40;0.65;;;;;;;31.60;13.21;100349.66;6243382;22;20107;-66
2022/04/14 11:12:00;;;;;;;1.42;0.63;;;;;;;31.57;13.56;100337.09;6254845;23;20433;-65
2022/04/14 11:14:52;;;;;;;5.78;0.70;;;;;;;29.29;13.57;100315.72;6231833;23;20027;-66
2022/04/14 11:17:37;;;;;;;5.70;0.68;;;;;;;28.83;14.44;100312.50;6179821;23;20523;-65
2022/04/14 11:20:23;;;;;;;1.80;0.50;;;;;;;28.78;14.65;100317.50;6221678;23;20108;-65
2022/04/14 11:23:12;;;;;;;4.70;0.70;;;;;;;28.19;15.08;100327.13;6210853;23;20168;-66
2022/04/14 11:26:09;;;;;;;1.67;0.50;;;;;;;28.32;15.65;100321.50;6210756;23;20027;-68
2022/04/14 11:28:57;;;;;;;2.83;0.60;;;;;;;27.61;16.65;100308.31;6210671;23;20565;-67
2022/04/14 11:31:46;;;;;;;3.78;0.60;;;;;;;26.38;17.05;100228.41;6254430;23;20027;-66
2022/04/14 11:34:35;;;;;;;2.75;1.00;;;;;;;26.01;16.83;100300.16;6200984;23;20042;-66
2022/04/14 11:37:52;;;;;;;2.35;0.80;;;;;;;26.62;17.39;100304.56;6220986;23;20031;-67
2022/04/14 11:40:39;;;;;;;2.05;0.50;;;;;;;25.98;16.86;100297.66;6102111;23;20087;-65
2022/04/14 11:43:23;;;;;;;1.50;0.40;;;;;;;25.51;17.28;100301.16;6052449;23;20594;-66
2022/04/14 11:46:09;;;;;;;3.83;0.60;;;;;;;25.56;17.52;100279.94;6080885;23;20078;-67
2022/04/14 11:48:54;;;;;;;4.00;0.80;;;;;;;25.10;17.83;100286.94;6052366;23;20085;-66
2022/04/14 11:51:44;;;;;;;4.30;0.80;;;;;;;24.24;18.87;100285.78;6052041;23;20031;-66
2022/04/14 11:54:29;;;;;;;4.95;1.00;;;;;;;23.69;19.87;100277.72;6082388;23;20070;-67
2022/04/14 11:57:18;;;;;;;;;;;;;;;23.50;20.63;100282.59;6054440;23;20037;-67
2022/04/14 12:00:11;;;;;;;5.95;0.90;;;;;;;22.88;20.84;100277.56;6083402;23;19920;-65
2022/04/14 12:03:01;;;;;;;4.43;0.70;;;;;;;22.37;20.95;100282.50;6086052;23;20033;-66
2022/04/14 12:05:52;;;;;;;3.85;0.82;;;;;;;21.95;21.66;100280.50;6054940;23;20138;-67
2022/04/14 12:08:36;;;;;;;3.50;0.63;;;;;;;;;;6103804;23;20034;-66
2022/04/14 12:11:21;;;;;;;3.22;0.63;;;;;;;22.51;20.86;100264.56;6074661;23;20073;-66
2022/04/14 12:14:06;;;;;;;2.88;0.82;;;;;;;22.47;21.38;100281.06;6104009;23;20049;-67
2022/04/14 12:16:53;;;;;;;4.93;0.80;;;;;;;21.55;21.03;100260.31;6187093;23;20046;-66
2022/04/14 12:19:51;;;;;;;3.70;0.73;;;;;;;21.35;22.66;100267.78;6201495;23;20055;-64
2022/04/14 12:22:36;;;;;;;4.32;0.70;;;;;;;21.12;22.17;100241.22;6193284;23;20024;-66
2022/04/14 12:25:21;;;;;;;2.17;0.57;;;;;;;21.32;22.25;100235.59;6215107;23;20031;-67
2022/04/14 12:28:07;;;;;;;7.65;0.93;;;;;;;21.44;22.40;100259.19;6181629;23;20358;-65
2022/04/14 12:30:51;;;;;;;3.60;0.98;;;;;;;21.57;21.98;100249.44;6192009;23;20027;-64
2022/04/14 12:33:35;;;;;;;4.88;1.20;;;;;;;21.50;21.78;100265.13;6225454;23;20024;-65
2022/04/14 12:36:20;;;;;;;6.35;0.95;;;;;;;21.18;21.85;100262.47;6222257;23;20033;-65
2022/04/14 12:39:17;;;;;;;3.53;0.65;;;;;;;21.16;21.48;100265.25;6226288;23;20048;-66
2022/04/14 12:42:02;;;;;;;1.58;0.73;;;;;;;20.80;21.71;100253.72;6193605;23;20074;-65
2022/04/14 12:44:46;;;;;;;3.70;0.68;;;;;;;20.93;22.27;100232.41;6203362;23;20031;-67
2022/04/14 12:47:31;;;;;;;1.42;0.50;;;;;;;20.98;22.60;100230.31;6202950;23;20031;-66
2022/04/14 12:50:19;;;;;;;15.00;1.15;;;;;;;21.01;22.56;100219.38;6151393;23;20023;-66
2022/04/14 12:53:04;;;;;;;3.80;0.80;;;;;;;20.95;22.68;100244.84;6201690;23;20485;-65
2022/04/14 12:55:49;;;;;;;;;;;;;;;21.12;23.70;100246.59;6191156;23;20055;-64
2022/04/14 12:58:33;;;;;;;7.18;1.20;;;;;;;20.95;22.92;100233.19;6192922;23;20031;-72
2022/04/14 13:01:17;;;;;;;2.30;1.10;;;;;;;21.06;23.19;100255.94;6225573;23;20031;-65
2022/04/14 13:04:09;;;;;;;3.00;0.90;;;;;;;20.95;23.07;100241.28;6225291;23;20042;-67
2022/04/14 13:07:02;;;;;;;6.97;1.38;;;;;;;20.92;23.10;100241.44;6175923;23;20122;-65
2022/04/14 13:10:02;;;;;;;9.65;1.20;;;;;;;20.92;23.45;100247.72;6255311;23;20023;-65
2022/04/14 13:12:48;;;;;;;4.35;0.80;;;;;;;20.81;23.79;100246.53;6244791;23;20496;-65
2022/04/14 13:15:33;;;;;;;3.33;0.90;;;;;;;20.74;23.45;100245.09;6201569;23;20027;-65
2022/04/14 13:18:17;;;;;;;4.00;0.90;;;;;;;20.72;23.68;100245.19;6255507;23;20404;-65
2022/04/14 13:21:06;;;;;;;2.47;0.60;;;;;;;20.55;24.33;100229.06;6201105;23;20100;-64
2022/04/14 13:23:51;;;;;;;3.20;1.10;;;;;;;20.28;25.31;100219.72;6232571;23;20059;-64
2022/04/14 13:26:35;;;;;;;2.72;0.90;;;;;;;20.27;25.67;100227.88;6254847;23;20038;-64
2022/04/14 13:29:21;;;;;;;2.50;0.80;;;;;;;20.26;26.52;100236.91;6222036;23;20094;-65
2022/04/14 13:32:07;;;;;;;1.80;0.90;;;;;;;20.02;27.13;100214.75;6222428;23;20027;-64